Terminal Aerodrome Forecast
Issued by NWS

Home | Current Version | Previous Version | Graphics & Text | Print | Product List | Glossary On
Versions: 1 2 3 4 5 6 7 8 9 10 11 12 13
000
FTUS43 KTOP 211122
TAFFOE
TAF
KFOE 211122Z 2112/2212 28008KT P6SM OVC007
     FM211500 30007KT P6SM BKN013
     FM211800 29006KT P6SM BKN040
     FM212000 29006KT P6SM FEW250=

USA.gov is the U.S. government's official web portal to all federal, state and local government web resources and services.